sensor_id;sensor_type;location;lat;lon;timestamp;P1;durP1;ratioP1;P2;durP2;ratioP2
13250;SDS011;6692;50.710;7.180;2024-01-11T00:00:35;28.57;;;17.10;;
13250;SDS011;6692;50.710;7.180;2024-01-11T00:02:35;27.43;;;18.30;;
13250;SDS011;6692;50.710;7.180;2024-01-11T00:04:37;32.90;;;18.60;;
13250;SDS011;6692;50.710;7.180;2024-01-11T00:06:40;26.20;;;16.05;;
13250;SDS011;6692;50.710;7.180;2024-01-11T00:08:40;27.60;;;15.98;;
13250;SDS011;6692;50.710;7.180;2024-01-11T00:10:41;25.97;;;16.37;;
13250;SDS011;6692;50.710;7.180;2024-01-11T00:12:41;26.30;;;16.50;;
13250;SDS011;6692;50.710;7.180;2024-01-11T00:14:43;30.83;;;17.90;;
13250;SDS011;6692;50.710;7.180;2024-01-11T00:16:43;26.83;;;16.52;;
13250;SDS011;6692;50.710;7.180;2024-01-11T00:18:44;33.77;;;18.30;;
13250;SDS011;6692;50.710;7.180;2024-01-11T00:20:46;29.27;;;17.83;;
13250;SDS011;6692;50.710;7.180;2024-01-11T00:22:46;29.55;;;16.92;;
13250;SDS011;6692;50.710;7.180;2024-01-11T00:24:47;28.37;;;17.17;;
13250;SDS011;6692;50.710;7.180;2024-01-11T00:26:48;26.50;;;15.40;;
13250;SDS011;6692;50.710;7.180;2024-01-11T00:28:49;26.93;;;16.40;;
13250;SDS011;6692;50.710;7.180;2024-01-11T00:30:49;29.03;;;17.40;;
13250;SDS011;6692;50.710;7.180;2024-01-11T00:32:50;28.70;;;17.00;;
13250;SDS011;6692;50.710;7.180;2024-01-11T00:34:51;32.30;;;15.67;;
13250;SDS011;6692;50.710;7.180;2024-01-11T00:36:52;30.83;;;16.33;;
13250;SDS011;6692;50.710;7.180;2024-01-11T00:38:53;25.37;;;15.77;;
13250;SDS011;6692;50.710;7.180;2024-01-11T00:40:53;24.57;;;15.87;;
13250;SDS011;6692;50.710;7.180;2024-01-11T00:42:54;26.73;;;16.47;;
13250;SDS011;6692;50.710;7.180;2024-01-11T00:44:56;27.57;;;16.07;;
13250;SDS011;6692;50.710;7.180;2024-01-11T00:46:56;25.27;;;15.07;;
13250;SDS011;6692;50.710;7.180;2024-01-11T00:48:57;26.80;;;15.43;;
13250;SDS011;6692;50.710;7.180;2024-01-11T00:50:58;27.13;;;16.30;;
13250;SDS011;6692;50.710;7.180;2024-01-11T00:52:59;28.47;;;16.73;;
13250;SDS011;6692;50.710;7.180;2024-01-11T00:55:00;24.48;;;15.55;;
13250;SDS011;6692;50.710;7.180;2024-01-11T00:57:01;24.23;;;14.63;;
13250;SDS011;6692;50.710;7.180;2024-01-11T00:59:01;27.37;;;15.23;;
13250;SDS011;6692;50.710;7.180;2024-01-11T01:01:02;28.90;;;17.20;;
13250;SDS011;6692;50.710;7.180;2024-01-11T01:03:03;24.87;;;15.23;;
13250;SDS011;6692;50.710;7.180;2024-01-11T01:05:04;25.88;;;15.82;;
13250;SDS011;6692;50.710;7.180;2024-01-11T01:07:05;25.00;;;15.40;;
13250;SDS011;6692;50.710;7.180;2024-01-11T01:09:06;24.87;;;14.93;;
13250;SDS011;6692;50.710;7.180;2024-01-11T01:11:06;26.87;;;16.23;;
13250;SDS011;6692;50.710;7.180;2024-01-11T01:13:07;26.90;;;15.97;;
13250;SDS011;6692;50.710;7.180;2024-01-11T01:15:09;29.20;;;16.53;;
13250;SDS011;6692;50.710;7.180;2024-01-11T01:17:09;24.90;;;15.70;;
13250;SDS011;6692;50.710;7.180;2024-01-11T01:19:10;25.37;;;15.03;;
13250;SDS011;6692;50.710;7.180;2024-01-11T01:21:11;26.03;;;15.23;;
13250;SDS011;6692;50.710;7.180;2024-01-11T01:23:11;27.67;;;15.97;;
13250;SDS011;6692;50.710;7.180;2024-01-11T01:25:12;25.50;;;15.17;;
13250;SDS011;6692;50.710;7.180;2024-01-11T01:27:13;22.80;;;15.70;;
13250;SDS011;6692;50.710;7.180;2024-01-11T01:29:14;29.53;;;16.97;;
13250;SDS011;6692;50.710;7.180;2024-01-11T01:31:14;24.77;;;15.20;;
13250;SDS011;6692;50.710;7.180;2024-01-11T01:33:15;30.13;;;17.07;;
13250;SDS011;6692;50.710;7.180;2024-01-11T01:35:16;28.57;;;16.43;;
13250;SDS011;6692;50.710;7.180;2024-01-11T01:37:17;23.67;;;15.50;;
13250;SDS011;6692;50.710;7.180;2024-01-11T01:39:18;28.40;;;16.80;;
13250;SDS011;6692;50.710;7.180;2024-01-11T01:41:19;23.27;;;14.90;;
13250;SDS011;6692;50.710;7.180;2024-01-11T01:43:20;27.60;;;15.98;;
13250;SDS011;6692;50.710;7.180;2024-01-11T01:45:21;23.00;;;14.63;;
13250;SDS011;6692;50.710;7.180;2024-01-11T01:47:22;25.87;;;14.87;;
13250;SDS011;6692;50.710;7.180;2024-01-11T01:49:22;22.33;;;14.97;;
13250;SDS011;6692;50.710;7.180;2024-01-11T01:51:23;26.43;;;16.33;;
13250;SDS011;6692;50.710;7.180;2024-01-11T01:53:24;23.30;;;14.60;;
13250;SDS011;6692;50.710;7.180;2024-01-11T01:55:26;24.25;;;14.77;;
13250;SDS011;6692;50.710;7.180;2024-01-11T01:57:26;26.80;;;15.33;;
13250;SDS011;6692;50.710;7.180;2024-01-11T01:59:27;25.50;;;14.53;;
13250;SDS011;6692;50.710;7.180;2024-01-11T02:01:28;26.50;;;15.73;;
13250;SDS011;6692;50.710;7.180;2024-01-11T02:03:29;25.62;;;15.63;;
13250;SDS011;6692;50.710;7.180;2024-01-11T02:05:29;26.83;;;15.50;;
13250;SDS011;6692;50.710;7.180;2024-01-11T02:07:30;25.17;;;14.97;;
13250;SDS011;6692;50.710;7.180;2024-01-11T02:09:32;27.10;;;15.63;;
13250;SDS011;6692;50.710;7.180;2024-01-11T02:11:32;27.25;;;16.80;;
13250;SDS011;6692;50.710;7.180;2024-01-11T02:13:34;26.17;;;16.47;;
13250;SDS011;6692;50.710;7.180;2024-01-11T02:15:35;25.92;;;14.65;;
13250;SDS011;6692;50.710;7.180;2024-01-11T02:17:35;25.00;;;15.80;;
13250;SDS011;6692;50.710;7.180;2024-01-11T02:19:36;25.23;;;14.57;;
13250;SDS011;6692;50.710;7.180;2024-01-11T02:21:38;25.13;;;14.17;;
13250;SDS011;6692;50.710;7.180;2024-01-11T02:23:41;23.67;;;14.50;;
13250;SDS011;6692;50.710;7.180;2024-01-11T02:25:39;26.50;;;16.03;;
13250;SDS011;6692;50.710;7.180;2024-01-11T02:27:44;27.27;;;14.97;;
13250;SDS011;6692;50.710;7.180;2024-01-11T02:29:46;28.58;;;14.82;;
13250;SDS011;6692;50.710;7.180;2024-01-11T02:31:48;22.67;;;14.53;;
13250;SDS011;6692;50.710;7.180;2024-01-11T02:33:48;26.35;;;15.30;;
13250;SDS011;6692;50.710;7.180;2024-01-11T02:35:49;26.93;;;15.20;;
13250;SDS011;6692;50.710;7.180;2024-01-11T02:37:50;25.20;;;15.13;;
13250;SDS011;6692;50.710;7.180;2024-01-11T02:39:51;25.77;;;14.00;;
13250;SDS011;6692;50.710;7.180;2024-01-11T02:41:53;22.23;;;14.15;;
13250;SDS011;6692;50.710;7.180;2024-01-11T02:43:53;24.37;;;14.43;;
13250;SDS011;6692;50.710;7.180;2024-01-11T02:45:54;27.47;;;15.77;;
13250;SDS011;6692;50.710;7.180;2024-01-11T02:47:54;28.63;;;15.13;;
13250;SDS011;6692;50.710;7.180;2024-01-11T02:49:56;25.17;;;14.70;;
13250;SDS011;6692;50.710;7.180;2024-01-11T02:51:57;22.10;;;13.10;;
13250;SDS011;6692;50.710;7.180;2024-01-11T02:53:58;25.20;;;14.63;;
13250;SDS011;6692;50.710;7.180;2024-01-11T02:55:59;25.20;;;14.10;;
13250;SDS011;6692;50.710;7.180;2024-01-11T02:57:59;22.40;;;13.43;;
13250;SDS011;6692;50.710;7.180;2024-01-11T03:00:00;21.93;;;13.83;;
13250;SDS011;6692;50.710;7.180;2024-01-11T03:02:02;25.40;;;14.17;;
13250;SDS011;6692;50.710;7.180;2024-01-11T03:04:03;20.12;;;12.43;;
13250;SDS011;6692;50.710;7.180;2024-01-11T03:06:04;23.40;;;14.23;;
13250;SDS011;6692;50.710;7.180;2024-01-11T03:08:05;27.80;;;14.27;;
13250;SDS011;6692;50.710;7.180;2024-01-11T03:10:06;24.33;;;14.63;;
13250;SDS011;6692;50.710;7.180;2024-01-11T03:12:07;23.83;;;14.30;;
13250;SDS011;6692;50.710;7.180;2024-01-11T03:14:08;24.23;;;14.30;;
13250;SDS011;6692;50.710;7.180;2024-01-11T03:16:09;23.67;;;14.67;;
13250;SDS011;6692;50.710;7.180;2024-01-11T03:18:10;22.17;;;13.07;;
13250;SDS011;6692;50.710;7.180;2024-01-11T03:20:10;24.20;;;14.63;;
13250;SDS011;6692;50.710;7.180;2024-01-11T03:22:12;23.10;;;12.87;;
13250;SDS011;6692;50.710;7.180;2024-01-11T03:24:13;23.65;;;14.07;;
13250;SDS011;6692;50.710;7.180;2024-01-11T03:26:15;26.17;;;14.68;;
13250;SDS011;6692;50.710;7.180;2024-01-11T03:28:15;23.37;;;14.17;;
13250;SDS011;6692;50.710;7.180;2024-01-11T03:30:16;25.37;;;14.27;;
13250;SDS011;6692;50.710;7.180;2024-01-11T03:32:17;22.67;;;13.48;;
13250;SDS011;6692;50.710;7.180;2024-01-11T03:34:18;23.83;;;13.40;;
13250;SDS011;6692;50.710;7.180;2024-01-11T03:36:22;25.70;;;15.17;;
13250;SDS011;6692;50.710;7.180;2024-01-11T03:38:19;23.23;;;14.47;;
13250;SDS011;6692;50.710;7.180;2024-01-11T03:40:20;21.93;;;13.00;;
13250;SDS011;6692;50.710;7.180;2024-01-11T03:42:21;24.30;;;13.93;;
13250;SDS011;6692;50.710;7.180;2024-01-11T03:44:22;24.77;;;12.97;;
13250;SDS011;6692;50.710;7.180;2024-01-11T03:46:22;22.80;;;13.13;;
13250;SDS011;6692;50.710;7.180;2024-01-11T03:48:23;23.17;;;13.07;;
13250;SDS011;6692;50.710;7.180;2024-01-11T03:50:23;23.80;;;12.93;;
13250;SDS011;6692;50.710;7.180;2024-01-11T03:52:24;23.70;;;13.37;;
13250;SDS011;6692;50.710;7.180;2024-01-11T03:54:25;23.77;;;13.80;;
13250;SDS011;6692;50.710;7.180;2024-01-11T03:56:26;22.10;;;13.33;;
13250;SDS011;6692;50.710;7.180;2024-01-11T03:58:26;23.80;;;13.60;;
13250;SDS011;6692;50.710;7.180;2024-01-11T04:00:27;27.43;;;14.60;;
13250;SDS011;6692;50.710;7.180;2024-01-11T04:02:28;24.27;;;14.27;;
13250;SDS011;6692;50.710;7.180;2024-01-11T04:04:28;24.57;;;13.40;;
13250;SDS011;6692;50.710;7.180;2024-01-11T04:06:29;21.23;;;12.73;;
13250;SDS011;6692;50.710;7.180;2024-01-11T04:08:30;26.33;;;14.40;;
13250;SDS011;6692;50.710;7.180;2024-01-11T04:10:30;22.27;;;13.27;;
13250;SDS011;6692;50.710;7.180;2024-01-11T04:12:31;22.93;;;13.00;;
13250;SDS011;6692;50.710;7.180;2024-01-11T04:14:33;24.50;;;14.40;;
13250;SDS011;6692;50.710;7.180;2024-01-11T04:16:33;22.42;;;13.07;;
13250;SDS011;6692;50.710;7.180;2024-01-11T04:18:34;28.60;;;14.90;;
13250;SDS011;6692;50.710;7.180;2024-01-11T04:20:35;24.97;;;14.93;;
13250;SDS011;6692;50.710;7.180;2024-01-11T04:22:36;23.55;;;14.48;;
13250;SDS011;6692;50.710;7.180;2024-01-11T04:24:37;25.47;;;14.57;;
13250;SDS011;6692;50.710;7.180;2024-01-11T04:26:38;20.63;;;14.70;;
13250;SDS011;6692;50.710;7.180;2024-01-11T04:28:39;25.93;;;13.80;;
13250;SDS011;6692;50.710;7.180;2024-01-11T04:30:40;23.95;;;14.00;;
13250;SDS011;6692;50.710;7.180;2024-01-11T04:32:40;24.47;;;14.23;;
13250;SDS011;6692;50.710;7.180;2024-01-11T04:34:41;24.00;;;14.40;;
13250;SDS011;6692;50.710;7.180;2024-01-11T04:36:42;25.90;;;15.50;;
13250;SDS011;6692;50.710;7.180;2024-01-11T04:38:43;19.97;;;13.20;;
13250;SDS011;6692;50.710;7.180;2024-01-11T04:40:43;23.60;;;14.67;;
13250;SDS011;6692;50.710;7.180;2024-01-11T04:42:45;22.17;;;14.33;;
13250;SDS011;6692;50.710;7.180;2024-01-11T04:44:46;24.15;;;14.27;;
13250;SDS011;6692;50.710;7.180;2024-01-11T04:46:47;23.20;;;13.73;;
13250;SDS011;6692;50.710;7.180;2024-01-11T04:48:48;28.10;;;15.17;;
13250;SDS011;6692;50.710;7.180;2024-01-11T04:50:49;23.85;;;14.48;;
13250;SDS011;6692;50.710;7.180;2024-01-11T04:52:50;23.67;;;14.33;;
13250;SDS011;6692;50.710;7.180;2024-01-11T04:54:51;23.87;;;14.57;;
13250;SDS011;6692;50.710;7.180;2024-01-11T04:56:52;25.60;;;14.57;;
13250;SDS011;6692;50.710;7.180;2024-01-11T04:58:53;24.60;;;15.07;;
13250;SDS011;6692;50.710;7.180;2024-01-11T05:00:54;29.20;;;16.93;;
13250;SDS011;6692;50.710;7.180;2024-01-11T05:02:54;28.33;;;15.20;;
13250;SDS011;6692;50.710;7.180;2024-01-11T05:04:55;29.17;;;15.20;;
13250;SDS011;6692;50.710;7.180;2024-01-11T05:06:56;23.80;;;13.73;;
13250;SDS011;6692;50.710;7.180;2024-01-11T05:08:56;22.07;;;13.53;;
13250;SDS011;6692;50.710;7.180;2024-01-11T05:10:58;21.40;;;13.80;;
13250;SDS011;6692;50.710;7.180;2024-01-11T05:12:59;20.65;;;13.60;;
13250;SDS011;6692;50.710;7.180;2024-01-11T05:15:00;24.17;;;13.25;;
13250;SDS011;6692;50.710;7.180;2024-01-11T05:17:01;23.43;;;14.37;;
13250;SDS011;6692;50.710;7.180;2024-01-11T05:19:02;25.73;;;13.60;;
13250;SDS011;6692;50.710;7.180;2024-01-11T05:21:03;22.23;;;13.15;;
13250;SDS011;6692;50.710;7.180;2024-01-11T05:23:04;21.10;;;14.17;;
13250;SDS011;6692;50.710;7.180;2024-01-11T05:25:05;21.20;;;13.97;;
13250;SDS011;6692;50.710;7.180;2024-01-11T05:27:06;26.33;;;14.57;;
13250;SDS011;6692;50.710;7.180;2024-01-11T05:29:07;30.03;;;15.13;;
13250;SDS011;6692;50.710;7.180;2024-01-11T05:31:09;23.33;;;13.17;;
13250;SDS011;6692;50.710;7.180;2024-01-11T05:33:09;22.90;;;13.10;;
13250;SDS011;6692;50.710;7.180;2024-01-11T05:35:11;25.90;;;14.50;;
13250;SDS011;6692;50.710;7.180;2024-01-11T05:37:12;26.67;;;14.43;;
13250;SDS011;6692;50.710;7.180;2024-01-11T05:39:12;26.83;;;13.83;;
13250;SDS011;6692;50.710;7.180;2024-01-11T05:41:13;24.87;;;13.03;;
13250;SDS011;6692;50.710;7.180;2024-01-11T05:43:14;24.80;;;13.80;;
13250;SDS011;6692;50.710;7.180;2024-01-11T05:45:15;23.33;;;13.20;;
13250;SDS011;6692;50.710;7.180;2024-01-11T05:47:18;19.58;;;12.60;;
13250;SDS011;6692;50.710;7.180;2024-01-11T05:49:19;21.62;;;13.88;;
13250;SDS011;6692;50.710;7.180;2024-01-11T05:51:20;26.10;;;13.53;;
13250;SDS011;6692;50.710;7.180;2024-01-11T05:53:21;19.43;;;12.90;;
13250;SDS011;6692;50.710;7.180;2024-01-11T05:55:23;24.87;;;13.60;;
13250;SDS011;6692;50.710;7.180;2024-01-11T05:57:24;23.67;;;13.30;;
13250;SDS011;6692;50.710;7.180;2024-01-11T05:59:25;24.70;;;14.27;;
13250;SDS011;6692;50.710;7.180;2024-01-11T06:01:25;22.37;;;13.50;;
13250;SDS011;6692;50.710;7.180;2024-01-11T06:03:26;22.07;;;13.43;;
13250;SDS011;6692;50.710;7.180;2024-01-11T06:05:28;20.70;;;13.73;;
13250;SDS011;6692;50.710;7.180;2024-01-11T06:07:28;25.05;;;13.95;;
13250;SDS011;6692;50.710;7.180;2024-01-11T06:09:29;25.77;;;13.83;;
13250;SDS011;6692;50.710;7.180;2024-01-11T06:11:31;25.90;;;13.83;;
13250;SDS011;6692;50.710;7.180;2024-01-11T06:13:31;22.17;;;12.45;;
13250;SDS011;6692;50.710;7.180;2024-01-11T06:15:32;24.97;;;13.80;;
13250;SDS011;6692;50.710;7.180;2024-01-11T06:17:33;22.83;;;13.10;;
13250;SDS011;6692;50.710;7.180;2024-01-11T06:19:34;24.67;;;13.90;;
13250;SDS011;6692;50.710;7.180;2024-01-11T06:21:35;21.67;;;12.88;;
13250;SDS011;6692;50.710;7.180;2024-01-11T06:23:36;23.27;;;13.73;;
13250;SDS011;6692;50.710;7.180;2024-01-11T06:25:38;23.23;;;13.90;;
13250;SDS011;6692;50.710;7.180;2024-01-11T06:27:41;26.80;;;14.45;;
13250;SDS011;6692;50.710;7.180;2024-01-11T06:29:40;25.73;;;15.50;;
13250;SDS011;6692;50.710;7.180;2024-01-11T06:31:41;27.60;;;14.60;;
13250;SDS011;6692;50.710;7.180;2024-01-11T06:33:42;24.27;;;14.77;;
13250;SDS011;6692;50.710;7.180;2024-01-11T06:35:43;24.55;;;13.45;;
13250;SDS011;6692;50.710;7.180;2024-01-11T06:37:43;19.30;;;11.90;;
13250;SDS011;6692;50.710;7.180;2024-01-11T06:39:44;21.37;;;13.67;;
13250;SDS011;6692;50.710;7.180;2024-01-11T06:41:45;26.17;;;14.90;;
13250;SDS011;6692;50.710;7.180;2024-01-11T06:43:46;24.40;;;13.80;;
13250;SDS011;6692;50.710;7.180;2024-01-11T06:45:46;29.73;;;15.10;;
13250;SDS011;6692;50.710;7.180;2024-01-11T06:47:47;26.00;;;14.97;;
13250;SDS011;6692;50.710;7.180;2024-01-11T06:49:49;28.27;;;15.23;;
13250;SDS011;6692;50.710;7.180;2024-01-11T06:51:49;30.42;;;16.62;;
13250;SDS011;6692;50.710;7.180;2024-01-11T06:53:51;29.60;;;17.33;;
13250;SDS011;6692;50.710;7.180;2024-01-11T06:55:51;27.97;;;16.00;;
13250;SDS011;6692;50.710;7.180;2024-01-11T06:57:51;28.43;;;15.10;;
13250;SDS011;6692;50.710;7.180;2024-01-11T06:59:53;30.40;;;16.53;;
13250;SDS011;6692;50.710;7.180;2024-01-11T07:01:54;30.50;;;16.90;;
13250;SDS011;6692;50.710;7.180;2024-01-11T07:03:54;28.33;;;14.90;;
13250;SDS011;6692;50.710;7.180;2024-01-11T07:05:55;28.33;;;15.27;;
13250;SDS011;6692;50.710;7.180;2024-01-11T07:07:56;26.03;;;14.97;;
13250;SDS011;6692;50.710;7.180;2024-01-11T07:09:57;23.13;;;14.30;;
13250;SDS011;6692;50.710;7.180;2024-01-11T07:11:57;25.70;;;14.43;;
13250;SDS011;6692;50.710;7.180;2024-01-11T07:13:58;25.40;;;15.33;;
13250;SDS011;6692;50.710;7.180;2024-01-11T07:15:59;27.07;;;16.33;;
13250;SDS011;6692;50.710;7.180;2024-01-11T07:17:59;28.67;;;16.30;;
13250;SDS011;6692;50.710;7.180;2024-01-11T07:20:00;28.40;;;15.93;;
13250;SDS011;6692;50.710;7.180;2024-01-11T07:22:01;26.63;;;14.90;;
13250;SDS011;6692;50.710;7.180;2024-01-11T07:24:02;23.97;;;14.20;;
13250;SDS011;6692;50.710;7.180;2024-01-11T07:26:03;22.67;;;14.47;;
13250;SDS011;6692;50.710;7.180;2024-01-11T07:28:04;27.00;;;15.17;;
13250;SDS011;6692;50.710;7.180;2024-01-11T07:30:06;27.23;;;14.87;;
13250;SDS011;6692;50.710;7.180;2024-01-11T07:32:09;26.05;;;16.17;;
13250;SDS011;6692;50.710;7.180;2024-01-11T07:34:09;25.85;;;14.57;;
13250;SDS011;6692;50.710;7.180;2024-01-11T07:36:10;26.73;;;15.33;;
13250;SDS011;6692;50.710;7.180;2024-01-11T07:38:11;26.33;;;14.67;;
13250;SDS011;6692;50.710;7.180;2024-01-11T07:40:12;22.97;;;13.77;;
13250;SDS011;6692;50.710;7.180;2024-01-11T07:42:13;28.83;;;15.07;;
13250;SDS011;6692;50.710;7.180;2024-01-11T07:44:13;24.87;;;15.07;;
13250;SDS011;6692;50.710;7.180;2024-01-11T07:46:14;26.87;;;15.57;;
13250;SDS011;6692;50.710;7.180;2024-01-11T07:48:15;25.37;;;14.43;;
13250;SDS011;6692;50.710;7.180;2024-01-11T07:50:15;29.07;;;16.10;;
13250;SDS011;6692;50.710;7.180;2024-01-11T07:52:17;29.80;;;16.70;;
13250;SDS011;6692;50.710;7.180;2024-01-11T07:54:18;25.40;;;14.70;;
13250;SDS011;6692;50.710;7.180;2024-01-11T07:56:20;27.48;;;14.87;;
13250;SDS011;6692;50.710;7.180;2024-01-11T07:58:20;26.02;;;15.50;;
13250;SDS011;6692;50.710;7.180;2024-01-11T08:00:21;25.10;;;15.00;;
13250;SDS011;6692;50.710;7.180;2024-01-11T08:02:22;23.33;;;14.80;;
13250;SDS011;6692;50.710;7.180;2024-01-11T08:04:24;26.77;;;14.93;;
13250;SDS011;6692;50.710;7.180;2024-01-11T08:06:24;25.15;;;14.85;;
13250;SDS011;6692;50.710;7.180;2024-01-11T08:08:25;26.27;;;15.40;;
13250;SDS011;6692;50.710;7.180;2024-01-11T08:10:26;24.57;;;15.47;;
13250;SDS011;6692;50.710;7.180;2024-01-11T08:12:26;26.57;;;15.87;;
13250;SDS011;6692;50.710;7.180;2024-01-11T08:14:27;24.10;;;14.63;;
13250;SDS011;6692;50.710;7.180;2024-01-11T08:16:28;27.63;;;15.13;;
13250;SDS011;6692;50.710;7.180;2024-01-11T08:18:30;24.40;;;15.03;;
13250;SDS011;6692;50.710;7.180;2024-01-11T08:20:31;26.23;;;15.63;;
13250;SDS011;6692;50.710;7.180;2024-01-11T08:22:32;27.40;;;15.10;;
13250;SDS011;6692;50.710;7.180;2024-01-11T08:24:32;25.93;;;15.73;;
13250;SDS011;6692;50.710;7.180;2024-01-11T08:26:33;28.80;;;15.63;;
13250;SDS011;6692;50.710;7.180;2024-01-11T08:28:34;26.83;;;15.53;;
13250;SDS011;6692;50.710;7.180;2024-01-11T08:30:35;29.90;;;16.80;;
13250;SDS011;6692;50.710;7.180;2024-01-11T08:32:35;29.60;;;16.23;;
13250;SDS011;6692;50.710;7.180;2024-01-11T08:34:37;28.87;;;17.43;;
13250;SDS011;6692;50.710;7.180;2024-01-11T08:36:38;28.35;;;15.90;;
13250;SDS011;6692;50.710;7.180;2024-01-11T08:38:40;26.77;;;15.60;;
13250;SDS011;6692;50.710;7.180;2024-01-11T08:40:40;23.20;;;15.23;;
13250;SDS011;6692;50.710;7.180;2024-01-11T08:42:41;24.07;;;15.60;;
13250;SDS011;6692;50.710;7.180;2024-01-11T08:44:42;32.27;;;18.03;;
13250;SDS011;6692;50.710;7.180;2024-01-11T08:46:43;33.50;;;19.03;;
13250;SDS011;6692;50.710;7.180;2024-01-11T08:48:43;35.20;;;17.40;;
13250;SDS011;6692;50.710;7.180;2024-01-11T08:50:45;34.67;;;19.23;;
13250;SDS011;6692;50.710;7.180;2024-01-11T08:52:46;32.42;;;18.77;;
13250;SDS011;6692;50.710;7.180;2024-01-11T08:54:47;32.22;;;17.67;;
13250;SDS011;6692;50.710;7.180;2024-01-11T08:56:48;32.20;;;17.93;;
13250;SDS011;6692;50.710;7.180;2024-01-11T08:58:48;30.83;;;17.03;;
13250;SDS011;6692;50.710;7.180;2024-01-11T09:00:50;28.63;;;16.87;;
13250;SDS011;6692;50.710;7.180;2024-01-11T09:02:51;26.00;;;16.77;;
13250;SDS011;6692;50.710;7.180;2024-01-11T09:04:51;25.73;;;15.60;;
13250;SDS011;6692;50.710;7.180;2024-01-11T09:06:52;30.10;;;17.53;;
13250;SDS011;6692;50.710;7.180;2024-01-11T09:08:54;28.13;;;16.27;;
13250;SDS011;6692;50.710;7.180;2024-01-11T09:10:54;28.70;;;16.05;;
13250;SDS011;6692;50.710;7.180;2024-01-11T09:12:55;25.37;;;15.30;;
13250;SDS011;6692;50.710;7.180;2024-01-11T09:14:56;29.17;;;16.33;;
13250;SDS011;6692;50.710;7.180;2024-01-11T09:16:56;27.33;;;15.67;;
13250;SDS011;6692;50.710;7.180;2024-01-11T09:18:57;23.33;;;15.47;;
13250;SDS011;6692;50.710;7.180;2024-01-11T09:20:58;26.43;;;15.97;;
13250;SDS011;6692;50.710;7.180;2024-01-11T09:22:59;26.03;;;16.87;;
13250;SDS011;6692;50.710;7.180;2024-01-11T09:24:59;27.60;;;16.83;;
13250;SDS011;6692;50.710;7.180;2024-01-11T09:27:00;25.97;;;16.47;;
13250;SDS011;6692;50.710;7.180;2024-01-11T09:29:01;27.73;;;16.13;;
13250;SDS011;6692;50.710;7.180;2024-01-11T09:31:01;28.37;;;17.00;;
13250;SDS011;6692;50.710;7.180;2024-01-11T09:33:03;26.30;;;16.80;;
13250;SDS011;6692;50.710;7.180;2024-01-11T09:35:04;30.62;;;17.05;;
13250;SDS011;6692;50.710;7.180;2024-01-11T09:37:05;27.48;;;17.25;;
13250;SDS011;6692;50.710;7.180;2024-01-11T09:39:06;22.27;;;14.57;;
13250;SDS011;6692;50.710;7.180;2024-01-11T09:41:07;25.13;;;16.27;;
13250;SDS011;6692;50.710;7.180;2024-01-11T09:43:07;26.67;;;16.53;;
13250;SDS011;6692;50.710;7.180;2024-01-11T09:45:11;29.33;;;17.63;;
13250;SDS011;6692;50.710;7.180;2024-01-11T09:47:10;31.87;;;19.58;;
13250;SDS011;6692;50.710;7.180;2024-01-11T09:49:10;27.53;;;17.87;;
13250;SDS011;6692;50.710;7.180;2024-01-11T09:51:12;27.97;;;18.17;;
13250;SDS011;6692;50.710;7.180;2024-01-11T09:53:12;29.00;;;17.40;;
13250;SDS011;6692;50.710;7.180;2024-01-11T09:55:13;29.27;;;18.00;;
13250;SDS011;6692;50.710;7.180;2024-01-11T09:57:14;29.70;;;18.17;;
13250;SDS011;6692;50.710;7.180;2024-01-11T09:59:15;27.30;;;17.53;;
13250;SDS011;6692;50.710;7.180;2024-01-11T10:01:15;29.07;;;17.37;;
13250;SDS011;6692;50.710;7.180;2024-01-11T10:03:17;27.13;;;17.37;;
13250;SDS011;6692;50.710;7.180;2024-01-11T10:05:18;27.73;;;16.80;;
13250;SDS011;6692;50.710;7.180;2024-01-11T10:07:22;30.98;;;19.20;;
13250;SDS011;6692;50.710;7.180;2024-01-11T10:09:22;26.90;;;18.02;;
13250;SDS011;6692;50.710;7.180;2024-01-11T10:11:23;32.60;;;19.73;;
13250;SDS011;6692;50.710;7.180;2024-01-11T10:13:26;30.67;;;19.83;;
13250;SDS011;6692;50.710;7.180;2024-01-11T10:15:25;28.50;;;18.40;;
13250;SDS011;6692;50.710;7.180;2024-01-11T10:17:26;28.97;;;18.33;;
13250;SDS011;6692;50.710;7.180;2024-01-11T10:19:27;30.20;;;19.63;;
13250;SDS011;6692;50.710;7.180;2024-01-11T10:21:28;29.67;;;18.53;;
13250;SDS011;6692;50.710;7.180;2024-01-11T10:23:30;30.73;;;18.75;;
13250;SDS011;6692;50.710;7.180;2024-01-11T10:25:31;34.25;;;19.98;;
13250;SDS011;6692;50.710;7.180;2024-01-11T10:27:32;33.42;;;19.52;;
13250;SDS011;6692;50.710;7.180;2024-01-11T10:29:33;36.93;;;22.00;;
13250;SDS011;6692;50.710;7.180;2024-01-11T10:31:33;31.80;;;20.10;;
13250;SDS011;6692;50.710;7.180;2024-01-11T10:33:34;29.03;;;20.07;;
13250;SDS011;6692;50.710;7.180;2024-01-11T10:35:35;34.17;;;22.07;;
13250;SDS011;6692;50.710;7.180;2024-01-11T10:37:36;33.83;;;21.80;;
13250;SDS011;6692;50.710;7.180;2024-01-11T10:39:37;34.13;;;19.37;;
13250;SDS011;6692;50.710;7.180;2024-01-11T10:41:39;31.45;;;19.12;;
13250;SDS011;6692;50.710;7.180;2024-01-11T10:43:39;34.42;;;21.17;;
13250;SDS011;6692;50.710;7.180;2024-01-11T10:45:40;33.33;;;20.10;;
13250;SDS011;6692;50.710;7.180;2024-01-11T10:47:42;36.17;;;22.67;;
13250;SDS011;6692;50.710;7.180;2024-01-11T10:49:41;38.57;;;24.50;;
13250;SDS011;6692;50.710;7.180;2024-01-11T10:51:43;39.23;;;23.33;;
13250;SDS011;6692;50.710;7.180;2024-01-11T10:53:43;37.07;;;23.73;;
13250;SDS011;6692;50.710;7.180;2024-01-11T10:55:44;38.07;;;23.97;;
13250;SDS011;6692;50.710;7.180;2024-01-11T10:57:46;39.60;;;25.02;;
13250;SDS011;6692;50.710;7.180;2024-01-11T10:59:47;41.17;;;24.40;;
13250;SDS011;6692;50.710;7.180;2024-01-11T11:01:48;40.60;;;25.58;;
13250;SDS011;6692;50.710;7.180;2024-01-11T11:03:49;33.43;;;22.57;;
13250;SDS011;6692;50.710;7.180;2024-01-11T11:05:50;38.90;;;25.47;;
13250;SDS011;6692;50.710;7.180;2024-01-11T11:07:53;42.75;;;26.27;;
13250;SDS011;6692;50.710;7.180;2024-01-11T11:09:52;37.40;;;23.87;;
13250;SDS011;6692;50.710;7.180;2024-01-11T11:11:55;36.83;;;23.93;;
13250;SDS011;6692;50.710;7.180;2024-01-11T11:13:55;36.65;;;23.77;;
13250;SDS011;6692;50.710;7.180;2024-01-11T11:15:56;40.90;;;26.05;;
13250;SDS011;6692;50.710;7.180;2024-01-11T11:17:58;41.17;;;25.45;;
13250;SDS011;6692;50.710;7.180;2024-01-11T11:19:58;41.57;;;26.50;;
13250;SDS011;6692;50.710;7.180;2024-01-11T11:21:59;38.73;;;24.00;;
13250;SDS011;6692;50.710;7.180;2024-01-11T11:24:01;41.20;;;26.30;;
13250;SDS011;6692;50.710;7.180;2024-01-11T11:26:02;45.83;;;26.98;;
13250;SDS011;6692;50.710;7.180;2024-01-11T11:28:04;48.75;;;27.50;;
13250;SDS011;6692;50.710;7.180;2024-01-11T11:30:05;46.15;;;27.62;;
13250;SDS011;6692;50.710;7.180;2024-01-11T11:32:06;42.67;;;26.12;;
13250;SDS011;6692;50.710;7.180;2024-01-11T11:34:10;42.43;;;25.33;;
13250;SDS011;6692;50.710;7.180;2024-01-11T11:36:11;43.43;;;27.20;;
13250;SDS011;6692;50.710;7.180;2024-01-11T11:38:16;45.27;;;26.37;;
13250;SDS011;6692;50.710;7.180;2024-01-11T11:40:09;46.97;;;27.10;;
13250;SDS011;6692;50.710;7.180;2024-01-11T11:42:11;40.55;;;25.90;;
13250;SDS011;6692;50.710;7.180;2024-01-11T11:44:12;43.70;;;28.20;;
13250;SDS011;6692;50.710;7.180;2024-01-11T11:46:13;38.83;;;25.83;;
13250;SDS011;6692;50.710;7.180;2024-01-11T11:50:29;48.58;;;29.30;;
13250;SDS011;6692;50.710;7.180;2024-01-11T11:52:29;46.90;;;27.52;;
13250;SDS011;6692;50.710;7.180;2024-01-11T11:54:29;42.90;;;28.23;;
13250;SDS011;6692;50.710;7.180;2024-01-11T11:56:30;49.40;;;28.80;;
13250;SDS011;6692;50.710;7.180;2024-01-11T11:58:32;43.67;;;28.60;;